createdAt,value
2022-12-04T00:00:21.355Z,41.1
2022-12-04T00:03:21.417Z,41.8
2022-12-04T00:06:21.386Z,41.3
2022-12-04T00:09:21.404Z,43.2
2022-12-04T00:12:21.423Z,42
2022-12-04T00:15:26.115Z,42.9
2022-12-04T00:18:21.460Z,41.9
2022-12-04T00:21:21.474Z,42
2022-12-04T00:24:21.487Z,42.3
2022-12-04T00:27:21.506Z,42.1
2022-12-04T00:30:21.517Z,42.2
2022-12-04T00:33:21.555Z,42.3
2022-12-04T00:36:21.555Z,42.9
2022-12-04T00:39:21.577Z,41.5
2022-12-04T00:42:21.595Z,41.9
2022-12-04T00:45:21.611Z,42.9
2022-12-04T00:48:21.629Z,41.6
2022-12-04T00:51:21.780Z,40.7
2022-12-04T00:54:21.659Z,42.6
2022-12-04T00:57:21.677Z,42.1
2022-12-04T01:00:21.699Z,41.9
2022-12-04T01:03:21.761Z,41.8
2022-12-04T01:06:21.723Z,41.2
2022-12-04T01:09:21.735Z,41.9
2022-12-04T01:12:21.784Z,41
2022-12-04T01:15:21.763Z,41.2
2022-12-04T01:18:21.767Z,40.5
2022-12-04T01:21:21.776Z,41.4
2022-12-04T01:24:21.787Z,39.7
2022-12-04T01:27:21.801Z,40.4
2022-12-04T01:30:21.837Z,39.6
2022-12-04T01:33:21.822Z,40
2022-12-04T01:36:21.817Z,39.4
2022-12-04T01:39:21.819Z,40.2
2022-12-04T01:42:21.831Z,40.1
2022-12-04T01:45:21.835Z,39.4
2022-12-04T01:48:21.982Z,40.1
2022-12-04T01:51:21.840Z,39.6
2022-12-04T01:54:21.842Z,39.6
2022-12-04T01:57:21.839Z,39.1
2022-12-04T02:00:21.852Z,39.2
2022-12-04T02:03:21.858Z,39.8
2022-12-04T02:06:21.883Z,39.1
2022-12-04T02:09:26.348Z,39
2022-12-04T02:12:21.861Z,39.7
2022-12-04T02:15:21.867Z,40.7
2022-12-04T02:18:21.877Z,39.5
2022-12-04T02:21:21.882Z,39.4
2022-12-04T02:24:21.964Z,40.2
2022-12-04T02:27:21.908Z,40.4
2022-12-04T02:30:22.035Z,39.9
2022-12-04T02:33:21.947Z,40.3
2022-12-04T02:36:21.962Z,40.5
2022-12-04T02:39:21.978Z,40.9
2022-12-04T02:42:22.005Z,39.6
2022-12-04T02:45:21.980Z,40.4
2022-12-04T02:48:21.977Z,39.8
2022-12-04T02:51:21.979Z,40.7
2022-12-04T02:54:21.982Z,40.1
2022-12-04T02:57:21.986Z,40.7
2022-12-04T03:00:22.015Z,41
2022-12-04T03:03:21.987Z,41.2
2022-12-04T03:06:21.989Z,40.9
2022-12-04T03:09:21.986Z,41.3
2022-12-04T03:12:21.994Z,40.3
2022-12-04T03:15:21.987Z,40.2
2022-12-04T03:18:22.024Z,40.6
2022-12-04T03:21:21.991Z,41.6
2022-12-04T03:24:21.997Z,40.4
2022-12-04T03:27:21.998Z,41.2
2022-12-04T03:30:22.012Z,41.9
2022-12-04T03:33:21.999Z,40.5
2022-12-04T03:36:22.089Z,40.2
2022-12-04T03:39:22.005Z,40.7
2022-12-04T03:42:21.999Z,41
2022-12-04T03:45:22.001Z,40.1
2022-12-04T03:48:23.298Z,40
2022-12-04T03:51:22.001Z,40.4
2022-12-04T03:54:22.032Z,39.6
2022-12-04T03:57:22.005Z,40.7
2022-12-04T04:00:22.006Z,39.7
2022-12-04T04:03:22.007Z,39.9
2022-12-04T04:06:22.006Z,39.4
2022-12-04T04:09:22.007Z,39.2
2022-12-04T04:12:22.041Z,38.4
2022-12-04T04:15:22.008Z,39.6
2022-12-04T04:18:22.007Z,39.6
2022-12-04T04:21:22.012Z,38.4
2022-12-04T04:24:22.013Z,39.2
2022-12-04T04:27:22.014Z,38.9
2022-12-04T04:30:22.035Z,39.5
2022-12-04T04:33:22.015Z,38.6
2022-12-04T04:36:22.019Z,38.4
2022-12-04T04:39:22.022Z,39.4
2022-12-04T04:42:22.026Z,39.2
2022-12-04T04:45:22.037Z,40.6
2022-12-04T04:48:22.058Z,38.9
2022-12-04T04:51:22.035Z,38.8
2022-12-04T04:54:22.038Z,39
2022-12-04T04:57:22.038Z,38.4
2022-12-04T05:00:22.050Z,39
2022-12-04T05:03:22.101Z,39.4
2022-12-04T05:06:22.072Z,39.7
2022-12-04T05:09:22.073Z,38.7
2022-12-04T05:12:22.052Z,39.9
2022-12-04T05:15:22.059Z,40
2022-12-04T05:18:22.060Z,39.3
2022-12-04T05:21:22.066Z,39.7
2022-12-04T05:24:22.105Z,39.7
2022-12-04T05:27:22.071Z,39.9
2022-12-04T05:30:22.081Z,39.8
2022-12-04T05:33:22.083Z,39.3
2022-12-04T05:36:22.082Z,40.4
2022-12-04T05:39:22.088Z,40
2022-12-04T05:42:22.118Z,38.6
2022-12-04T05:45:22.105Z,40.2
2022-12-04T05:48:22.104Z,40.6
2022-12-04T05:51:22.115Z,39.8
2022-12-04T05:54:22.116Z,39.8
2022-12-04T05:57:25.281Z,39.9
2022-12-04T06:00:22.159Z,40.5
2022-12-04T06:03:22.192Z,40.1
2022-12-04T06:06:22.709Z,40.3
2022-12-04T06:09:22.145Z,39.9
2022-12-04T06:12:22.154Z,40.8
2022-12-04T06:15:22.158Z,40.9
2022-12-04T06:18:22.194Z,41.1
2022-12-04T06:21:22.184Z,41.4
2022-12-04T06:24:22.184Z,42
2022-12-04T06:27:29.441Z,42.5
2022-12-04T06:30:22.204Z,41.7
2022-12-04T06:33:22.202Z,41.3
2022-12-04T06:36:22.239Z,42
2022-12-04T06:39:22.222Z,41.8
2022-12-04T06:42:22.226Z,42.7
2022-12-04T06:45:22.226Z,41.8
2022-12-04T06:48:22.242Z,42.6
2022-12-04T06:51:22.243Z,42.3
2022-12-04T06:54:22.275Z,43.2
2022-12-04T06:57:22.254Z,42.6
2022-12-04T07:00:22.265Z,43.6
2022-12-04T07:03:22.266Z,43.1
2022-12-04T07:06:22.271Z,44
2022-12-04T07:09:22.277Z,44.8
2022-12-04T07:12:22.311Z,44.9
2022-12-04T07:15:22.291Z,45.3
2022-12-04T07:18:22.290Z,45
2022-12-04T07:21:22.296Z,44.9
2022-12-04T07:24:22.304Z,45.9
2022-12-04T07:27:22.311Z,46.4
2022-12-04T07:30:22.344Z,46.9
2022-12-04T07:33:22.325Z,46.5
2022-12-04T07:36:22.371Z,47.9
2022-12-04T07:39:22.328Z,48.1
2022-12-04T07:42:24.184Z,48.7
2022-12-04T07:45:22.342Z,48.1
2022-12-04T07:48:22.377Z,48.6
2022-12-04T07:51:22.351Z,48.5
2022-12-04T07:54:22.351Z,49.7
2022-12-04T07:57:22.354Z,50.2
2022-12-04T08:00:22.365Z,49.2
2022-12-04T08:03:22.374Z,49.7
2022-12-04T08:06:22.410Z,49
2022-12-04T08:09:22.374Z,50.7
2022-12-04T08:12:22.379Z,50.3
2022-12-04T08:15:22.381Z,50
2022-12-04T08:18:22.389Z,50
2022-12-04T08:21:22.396Z,50.1
2022-12-04T08:24:22.428Z,50.1
2022-12-04T08:27:22.400Z,50.1
2022-12-04T08:30:22.405Z,49
2022-12-04T08:33:22.415Z,49.8
2022-12-04T08:36:22.414Z,48.4
2022-12-04T08:39:22.416Z,48
2022-12-04T08:42:22.450Z,48.8
2022-12-04T08:45:22.431Z,47.2
2022-12-04T08:48:22.436Z,49
2022-12-04T08:51:22.434Z,47.9
2022-12-04T08:54:22.442Z,48.1
2022-12-04T08:57:22.447Z,46.9
2022-12-04T09:00:22.486Z,47.5
2022-12-04T09:03:26.177Z,47.7
2022-12-04T09:06:22.464Z,47.3
2022-12-04T09:09:22.470Z,46.7
2022-12-04T09:12:22.479Z,47.7
2022-12-04T09:15:22.479Z,46.4
2022-12-04T09:18:22.511Z,46.5
2022-12-04T09:21:22.486Z,46.9
2022-12-04T09:24:22.493Z,47.5
2022-12-04T09:27:22.498Z,45.1
2022-12-04T09:30:22.505Z,44.9
2022-12-04T09:33:22.503Z,45.2
2022-12-04T09:36:22.535Z,45
2022-12-04T09:39:22.518Z,44.8
2022-12-04T09:42:22.525Z,45.1
2022-12-04T09:45:22.526Z,44.8
2022-12-04T09:48:22.532Z,45.3
2022-12-04T09:51:22.534Z,44.8
2022-12-04T09:54:22.566Z,44.9
2022-12-04T09:57:22.545Z,44.8
2022-12-04T10:00:22.547Z,44.3
2022-12-04T10:03:22.785Z,44
2022-12-04T10:06:22.559Z,43.1
2022-12-04T10:09:22.563Z,44.1
2022-12-04T10:12:22.603Z,43.6
2022-12-04T10:15:22.567Z,44
2022-12-04T10:18:22.578Z,43.3
2022-12-04T10:21:22.571Z,43.2
2022-12-04T10:24:22.579Z,43.7
2022-12-04T10:27:22.584Z,43.5
2022-12-04T10:30:22.661Z,44
2022-12-04T10:33:22.587Z,44.7
2022-12-04T10:36:22.593Z,43.1
2022-12-04T10:39:22.599Z,43.9
2022-12-04T10:42:22.600Z,43.2
2022-12-04T10:45:22.613Z,43
2022-12-04T10:48:22.630Z,43
2022-12-04T10:51:22.608Z,43.5
2022-12-04T10:54:22.610Z,43.4
2022-12-04T10:57:22.613Z,44.8
2022-12-04T11:00:22.638Z,43.7
2022-12-04T11:03:22.724Z,43
2022-12-04T11:06:22.661Z,44.1
2022-12-04T11:09:22.632Z,43.2
2022-12-04T11:12:22.635Z,44
2022-12-04T11:15:22.645Z,43.8
2022-12-04T11:18:22.661Z,43.5
2022-12-04T11:21:22.650Z,43
2022-12-04T11:24:22.682Z,43.4
2022-12-04T11:27:22.658Z,43
2022-12-04T11:30:22.664Z,42.7
2022-12-04T11:33:22.667Z,42.9
2022-12-04T11:36:22.667Z,43.2
2022-12-04T11:39:22.673Z,44.3
2022-12-04T11:42:22.711Z,42.7
2022-12-04T11:45:22.683Z,43.2
2022-12-04T11:48:22.689Z,43.5
2022-12-04T11:51:22.692Z,43
2022-12-04T11:54:22.694Z,42.8
2022-12-04T11:57:22.702Z,42.9
2022-12-04T12:00:22.735Z,42.5
2022-12-04T12:03:22.835Z,43.2
2022-12-04T12:06:22.712Z,43.4
2022-12-04T12:09:22.718Z,43
2022-12-04T12:12:22.725Z,42.9
2022-12-04T12:15:22.731Z,42.9
2022-12-04T12:18:22.758Z,43.4
2022-12-04T12:21:22.736Z,43.3
2022-12-04T12:24:22.744Z,44.1
2022-12-04T12:27:22.748Z,43.8
2022-12-04T12:30:22.751Z,43.1
2022-12-04T12:33:22.761Z,44.5
2022-12-04T12:36:22.790Z,44.2
2022-12-04T12:39:22.778Z,44.3
2022-12-04T12:42:22.781Z,44.3
2022-12-04T12:45:22.779Z,46.1
2022-12-04T12:48:22.794Z,45.8
2022-12-04T12:51:30.799Z,45.7
2022-12-04T12:54:22.831Z,45.2
2022-12-04T12:57:22.806Z,45.4
2022-12-04T13:00:22.811Z,45.5
2022-12-04T13:03:22.814Z,46.2
2022-12-04T13:06:22.814Z,46.7
2022-12-04T13:09:22.812Z,45.9
2022-12-04T13:12:22.849Z,46.2
2022-12-04T13:15:22.819Z,46.1
2022-12-04T13:18:22.828Z,46.2
2022-12-04T13:21:22.823Z,45.4
2022-12-04T13:24:22.830Z,45.8
2022-12-04T13:27:22.827Z,45.1
2022-12-04T13:30:22.856Z,46.4
2022-12-04T13:33:22.835Z,44.6
2022-12-04T13:36:22.839Z,47
2022-12-04T13:39:22.839Z,47.1
2022-12-04T13:42:22.851Z,46.6
2022-12-04T13:45:22.846Z,46.6
2022-12-04T13:48:22.884Z,47.4
2022-12-04T13:51:22.864Z,46.5
2022-12-04T13:54:22.886Z,47.3
2022-12-04T13:57:22.898Z,46.8
2022-12-04T14:00:22.891Z,46
2022-12-04T14:03:22.898Z,46.2
2022-12-04T14:06:22.940Z,45.8
2022-12-04T14:09:22.918Z,45.8
2022-12-04T14:12:22.923Z,45.1
2022-12-04T14:15:22.935Z,45.8
2022-12-04T14:18:22.941Z,45.9
2022-12-04T14:21:22.954Z,46.1
2022-12-04T14:24:23.024Z,46
2022-12-04T14:27:22.964Z,46.1
2022-12-04T14:30:22.970Z,46.1
2022-12-04T14:33:22.974Z,44.8
2022-12-04T14:36:22.980Z,45.6
2022-12-04T14:39:22.983Z,44.3
2022-12-04T14:42:23.019Z,45.4
2022-12-04T14:45:23.000Z,45
2022-12-04T14:48:23.003Z,45.1
2022-12-04T14:51:23.009Z,45.7
2022-12-04T14:54:23.014Z,45.8
2022-12-04T14:57:23.017Z,45
2022-12-04T15:00:23.054Z,44.8
2022-12-04T15:03:23.120Z,44.7
2022-12-04T15:06:23.028Z,46.9
2022-12-04T15:09:23.031Z,45.3
2022-12-04T15:12:23.036Z,45.1
2022-12-04T15:15:23.043Z,46
2022-12-04T15:18:23.076Z,45.5
2022-12-04T15:21:23.054Z,45.7
2022-12-04T15:24:23.060Z,47.1
2022-12-04T15:27:26.126Z,47.2
2022-12-04T15:30:23.064Z,46.2
2022-12-04T15:33:23.065Z,45.3
2022-12-04T15:36:29.059Z,46.2
2022-12-04T15:39:23.096Z,46
2022-12-04T15:42:23.075Z,46.5
2022-12-04T15:45:23.076Z,45.1
2022-12-04T15:48:23.084Z,46
2022-12-04T15:51:23.083Z,45.4
2022-12-04T15:54:23.091Z,45.2
2022-12-04T15:57:23.124Z,45.1
2022-12-04T16:00:23.102Z,44.2
2022-12-04T16:03:23.197Z,44.2
2022-12-04T16:06:23.114Z,45
2022-12-04T16:09:23.116Z,43.9
2022-12-04T16:12:23.126Z,45
2022-12-04T16:15:23.156Z,43.7
2022-12-04T16:18:23.138Z,44.2
2022-12-04T16:21:23.144Z,43.6
2022-12-04T16:24:23.138Z,44.9
2022-12-04T16:27:23.149Z,44.6
2022-12-04T16:30:23.150Z,44.6
2022-12-04T16:33:23.199Z,45.4
2022-12-04T16:36:23.175Z,44.5
2022-12-04T16:39:23.168Z,45.9
2022-12-04T16:42:23.170Z,44.2
2022-12-04T16:45:23.207Z,45.1
2022-12-04T16:48:23.262Z,45.5
2022-12-04T16:51:23.214Z,45.1
2022-12-04T16:54:23.194Z,44
2022-12-04T16:57:23.256Z,44.9
2022-12-04T17:00:23.198Z,44
2022-12-04T17:03:23.339Z,45
2022-12-04T17:06:23.208Z,46
2022-12-04T17:09:23.233Z,44.3
2022-12-04T17:12:23.323Z,44.8
2022-12-04T17:15:23.229Z,45.3
2022-12-04T17:18:23.222Z,45.5
2022-12-04T17:21:23.229Z,44.1
2022-12-04T17:24:23.232Z,44.6
2022-12-04T17:27:23.266Z,45.2
2022-12-04T17:30:23.248Z,44.8
2022-12-04T17:33:23.246Z,44.3
2022-12-04T17:36:23.248Z,44.2
2022-12-04T17:39:23.259Z,44.3
2022-12-04T17:42:23.264Z,44.2
2022-12-04T17:45:23.299Z,44.3
2022-12-04T17:48:23.273Z,45.1
2022-12-04T17:51:23.282Z,45.1
2022-12-04T17:54:23.284Z,44.2
2022-12-04T17:57:23.298Z,44.8
2022-12-04T18:00:23.291Z,44
2022-12-04T18:03:23.392Z,44.7
2022-12-04T18:06:23.303Z,45.7
2022-12-04T18:09:23.298Z,44.4
2022-12-04T18:12:23.304Z,44.6
2022-12-04T18:15:23.312Z,44.8
2022-12-04T18:18:23.313Z,44.1
2022-12-04T18:21:23.342Z,44.1
2022-12-04T18:24:23.317Z,44
2022-12-04T18:27:23.320Z,45
2022-12-04T18:30:23.329Z,43.9
2022-12-04T18:33:23.338Z,43
2022-12-04T18:36:23.343Z,44.2
2022-12-04T18:39:23.369Z,44.6
2022-12-04T18:42:23.341Z,44.8
2022-12-04T18:45:23.347Z,44.7
2022-12-04T18:48:23.356Z,44.3
2022-12-04T18:51:23.356Z,43.3
2022-12-04T18:54:23.359Z,44
2022-12-04T18:57:23.388Z,43.7
2022-12-04T19:00:23.363Z,44.2
2022-12-04T19:03:23.365Z,43.2
2022-12-04T19:06:23.396Z,43.3
2022-12-04T19:09:35.711Z,42.2
2022-12-04T19:12:23.373Z,43.2
2022-12-04T19:15:23.407Z,42.6
2022-12-04T19:18:23.378Z,43
2022-12-04T19:21:23.373Z,42.3
2022-12-04T19:24:23.387Z,42.1
2022-12-04T19:27:23.381Z,40.9
2022-12-04T19:30:23.387Z,41.2
2022-12-04T19:33:23.436Z,40.9
2022-12-04T19:36:23.388Z,41.8
2022-12-04T19:39:23.391Z,41.6
2022-12-04T19:42:23.398Z,40.6
2022-12-04T19:45:23.393Z,41.2
2022-12-04T19:48:23.400Z,40.6
2022-12-04T19:51:23.427Z,40.3
2022-12-04T19:54:23.398Z,40.8
2022-12-04T19:57:23.398Z,40.6
2022-12-04T20:00:23.404Z,39.9
2022-12-04T20:03:23.408Z,39.9
2022-12-04T20:06:23.405Z,39.5
2022-12-04T20:09:23.434Z,39.9
2022-12-04T20:12:23.406Z,40.3
2022-12-04T20:15:23.404Z,40.5
2022-12-04T20:18:23.408Z,39.5
2022-12-04T20:21:23.410Z,39.3
2022-12-04T20:24:23.410Z,39.3
2022-12-04T20:27:23.444Z,39.5
2022-12-04T20:30:23.512Z,39.1
2022-12-04T20:33:23.410Z,39.6
2022-12-04T20:36:23.411Z,39.9
2022-12-04T20:39:23.409Z,40
2022-12-04T20:42:25.483Z,40.2
2022-12-04T20:45:23.443Z,40.5
2022-12-04T20:48:23.417Z,40.2
2022-12-04T20:51:23.420Z,40.4
2022-12-04T20:54:23.434Z,40.6
2022-12-04T20:57:23.423Z,40
2022-12-04T21:00:23.486Z,41.2
2022-12-04T21:03:23.457Z,40.7
2022-12-04T21:06:23.431Z,40.9
2022-12-04T21:09:23.434Z,41
2022-12-04T21:12:23.438Z,41.2
2022-12-04T21:15:23.438Z,40.5
2022-12-04T21:18:23.439Z,40.9
2022-12-04T21:21:23.469Z,40.7
2022-12-04T21:24:23.447Z,40.4
2022-12-04T21:27:23.441Z,41.6
2022-12-04T21:30:23.445Z,40.2
2022-12-04T21:33:23.445Z,41.2
2022-12-04T21:36:23.446Z,41.5
2022-12-04T21:39:23.473Z,40.8
2022-12-04T21:42:23.447Z,40.3
2022-12-04T21:45:23.453Z,40.3
2022-12-04T21:48:23.451Z,39.9
2022-12-04T21:51:48.527Z,38.7
2022-12-04T21:54:23.454Z,40.5
2022-12-04T21:57:23.487Z,39.7
2022-12-04T22:00:23.461Z,39.4
2022-12-04T22:03:23.461Z,37.9
2022-12-04T22:06:23.464Z,38.2
2022-12-04T22:09:23.464Z,37.8
2022-12-04T22:12:48.277Z,38.7
2022-12-04T22:15:23.489Z,38.5
2022-12-04T22:18:23.462Z,37.8
2022-12-04T22:21:23.460Z,38
2022-12-04T22:24:23.463Z,38.2
2022-12-04T22:27:23.465Z,38.3
2022-12-04T22:30:23.466Z,37.7
2022-12-04T22:33:23.496Z,37.2
2022-12-04T22:36:23.472Z,37.4
2022-12-04T22:39:23.473Z,36.7
2022-12-04T22:42:23.476Z,36.4
2022-12-04T22:45:23.478Z,36.1
2022-12-04T22:48:23.477Z,36.4
2022-12-04T22:51:23.506Z,36.8
2022-12-04T22:54:23.481Z,36.2
2022-12-04T22:57:23.483Z,37.5
2022-12-04T23:00:23.479Z,37.3
2022-12-04T23:03:23.552Z,36.7
2022-12-04T23:06:23.479Z,37.4
2022-12-04T23:09:23.513Z,37.4
2022-12-04T23:12:23.485Z,38.2
2022-12-04T23:15:23.486Z,37.7
2022-12-04T23:18:23.488Z,37.3
2022-12-04T23:21:23.492Z,37.7
2022-12-04T23:24:23.498Z,37.6
2022-12-04T23:27:23.524Z,37.8
2022-12-04T23:30:27.567Z,38.4
2022-12-04T23:33:23.500Z,37.4
2022-12-04T23:36:23.495Z,37.8
2022-12-04T23:39:43.326Z,37.5
2022-12-04T23:47:06.670Z,37.2
2022-12-04T23:53:22.909Z,35.8
2022-12-04T23:58:19.995Z,36
